• Join FlightAware (Why Join?)
  • Login
  • US Flag 
11:51PM EDT


 

Airport Tracker/Info


-or-


 

Live Flight TrackerFlight Track Log ✈ N71RG ✈ 12-Jul-2013 ✈ KIND - CYYZ

Flight Track Log - Related Links

Times and Time Zones

All times are in EDT time to prevent confusion due to time zone crossing. See the N71RG flight status page for this flight to view local times or setup timezone preferences in your user account.

Time Position Orientation Groundspeed Altitude Reporting Facility
EDT Latitude Longitude Course Direction KTS MPH feet Rate Location/Type
06:53AM 39.7333 -86.3000 322° Northwest 159 183 1,200  Level Indianapolis TRACON
06:54AM 39.7667 -86.3333 322° Northwest 169 194 2,900 1,680 Climbing Indianapolis TRACON
06:55AM 39.8167 -86.3167 14° North 166 191 4,500 1,440 Climbing Indianapolis TRACON
06:56AM 39.8306 -86.2992 44° Northeast 159 183 5,100 1,380 Climbing Indianapolis Center
06:57AM 39.8711 -86.2750 25° Northeast 160 184 6,800 1,620 Climbing Indianapolis Center
06:58AM 39.9125 -86.2542 21° North 159 183 8,500 1,680 Climbing Indianapolis Center
06:59AM 39.9536 -86.2314 23° Northeast 160 184 10,200 1,200 Climbing Indianapolis Center
07:00AM 39.9967 -86.2075 23° Northeast 167 192 11,000 600 Climbing Indianapolis Center
07:01AM 40.0522 -86.1753 24° Northeast 217 250 11,500 660 Climbing Indianapolis Center
07:02AM 40.1061 -86.1453 23° Northeast 212 244 12,400 1,140 Climbing Indianapolis Center
07:03AM 40.1556 -86.1131 26° Northeast 202 232 13,800 1,440 Climbing Chicago Center
07:04AM 40.1903 -86.0611 49° Northeast 191 220 15,200 1,200 Climbing Chicago Center
07:05AM 40.2272 -86.0169 42° Northeast 184 212 16,300 1,080 Climbing Chicago Center
07:06AM 40.2639 -85.9706 44° Northeast 184 212 17,400 960 Climbing Chicago Center
07:07AM 40.3003 -85.9233 45° Northeast 184 212 18,300 960 Climbing Chicago Center
07:08AM 40.3383 -85.8767 43° Northeast 187 215 19,400 1,260 Climbing Chicago Center
07:09AM 40.3789 -85.8267 43° Northeast 169 194 20,900 1,200 Climbing Chicago Center
07:10AM 40.4117 -85.7836 45° Northeast 169 194 21,900 900 Climbing Chicago Center
07:11AM 40.4453 -85.7417 44° Northeast 169 194 22,800 840 Climbing Chicago Center
07:12AM 40.4789 -85.6981 45° Northeast 171 197 23,700 960 Climbing Chicago Center
07:13AM 40.5117 -85.6572 43° Northeast 162 186 24,800 600 Climbing Chicago Center
07:14AM 40.5408 -85.6100 51° Northeast 166 191 25,000 60 Climbing Chicago Center
07:15AM 40.5781 -85.5583 47° Northeast 188 216 25,000  Level Chicago Center
07:16AM 40.6269 -85.4911 46° Northeast 207 238 25,000  Level Chicago Center
07:17AM 40.6744 -85.4256 46° Northeast 218 251 25,000  Level Chicago Center
07:18AM 40.7175 -85.3689 45° Northeast 220 253 25,000  Level Chicago Center
07:19AM 40.7603 -85.3061 48° Northeast 227 261 25,000  Level Chicago Center
07:20AM 40.8039 -85.2442 47° Northeast 231 266 25,000  Level Chicago Center
07:21AM 40.8469 -85.1839 47° Northeast 229 264 25,000  Level Chicago Center
07:22AM 40.8900 -85.1261 45° Northeast 223 257 25,000  Level Chicago Center
07:23AM 40.9408 -85.0522 48° Northeast 227 261 25,000  Level Chicago Center
07:24AM 40.9839 -84.9928 46° Northeast 225 259 25,000  Level Chicago Center
07:25AM 41.0264 -84.9339 46° Northeast 223 257 25,000  Level Chicago Center
07:26AM 41.0689 -84.8725 47° Northeast 226 260 25,000  Level Chicago Center
07:27AM 41.1111 -84.8147 46° Northeast 222 255 25,000  Level Chicago Center
07:28AM 41.1536 -84.7531 48° Northeast 225 259 25,000  Level Chicago Center
07:29AM 41.1956 -84.6947 46° Northeast 221 254 25,000  Level Chicago Center
07:31AM 41.2375 -84.6333 48° Northeast 225 259 25,000  Level Chicago Center
07:32AM 41.2881 -84.5628 46° Northeast 221 254 25,000  Level Chicago Center
07:33AM 41.3292 -84.5025 48° Northeast 221 254 25,000  Level Chicago Center
07:34AM 41.3719 -84.4431 46° Northeast 223 257 25,000  Level Chicago Center
07:35AM 41.4136 -84.3831 47° Northeast 222 255 25,000  Level Chicago Center
07:36AM 41.4542 -84.3239 48° Northeast 219 252 25,000  Level Chicago Center
07:37AM 41.4953 -84.2647 47° Northeast 219 252 25,000  Level Chicago Center
07:38AM 41.5369 -84.2056 47° Northeast 220 253 25,000  Level Chicago Center
07:39AM 41.5783 -84.1461 47° Northeast 219 252 25,000  Level Chicago Center
07:40AM 41.6275 -84.0697 49° Northeast 210 242 25,000  Level Cleveland Center
07:41AM 41.6689 -84.0136 45° Northeast 210 242 25,000  Level Cleveland Center
07:42AM 41.7103 -83.9544 47° Northeast 210 242 25,000  Level Cleveland Center
07:43AM 41.7494 -83.8925 50° Northeast 210 242 25,000  Level Cleveland Center
07:44AM 41.7908 -83.8333 47° Northeast 210 242 25,000  Level Cleveland Center
07:45AM 41.8300 -83.7742 48° Northeast 210 242 25,000  Level Cleveland Center
07:46AM 41.8733 -83.7122 47° Northeast 210 242 25,000  Level Cleveland Center
07:47AM 41.9125 -83.6525 49° Northeast 210 242 25,000  Level Cleveland Center
07:48AM 41.9539 -83.5931 47° Northeast 210 242 25,000  Level Cleveland Center
07:49AM 41.9950 -83.5336 47° Northeast 216 249 25,000  Level Cleveland Center
07:50AM 42.0381 -83.4742 46° Northeast 209 241 25,000  Level Cleveland Center
07:51AM 42.0733 -83.4058 55° Northeast 209 241 25,000  Level Cleveland Center
07:52AM 42.1061 -83.3372 57° Northeast 209 241 25,000  Level Cleveland Center
07:53AM 42.1392 -83.2658 58° Northeast 215 247 25,000  Level Cleveland Center
07:54AM 42.1700 -83.1942 60° Northeast 215 247 25,000  Level Cleveland Center
07:55AM 42.2069 -83.1228 55° Northeast 215 247 25,000  Level Cleveland Center
07:56AM 42.2378 -83.0539 59° Northeast 215 247 25,000  Level Cleveland Center
07:57AM 42.2725 -82.9853 56° Northeast 215 247 25,000  Level Cleveland Center
07:58AM 42.3053 -82.9133 58° Northeast 215 247 25,000  Level Cleveland Center
07:59AM 42.3378 -82.8444 57° Northeast 215 247 25,000  Level Cleveland Center
08:00AM 42.3747 -82.7669 57° Northeast 215 247 25,000  Level Cleveland Center
08:01AM 42.4094 -82.6950 57° Northeast 220 253 25,000  Level Cleveland Center
08:02AM 42.4422 -82.6231 58° Northeast 220 253 25,000  Level Cleveland Center
08:03AM 42.4744 -82.5536 58° Northeast 220 253 25,000  Level Cleveland Center
08:04AM 42.5092 -82.4817 57° Northeast 220 253 25,000  Level Cleveland Center
08:05AM 42.5414 -82.4119 58° Northeast 220 253 25,000  Level Cleveland Center
08:06AM 42.5761 -82.3397 57° Northeast 220 253 25,000  Level Cleveland Center
08:07AM 42.6083 -82.2644 60° Northeast 220 253 25,000  Level Cleveland Center
08:08AM 42.6428 -82.1947 56° Northeast 220 253 25,000  Level Cleveland Center
08:09AM 42.6769 -82.1222 57° Northeast 225 259 25,000  Level Cleveland Center
08:10AM 42.7114 -82.0497 57° Northeast 225 259 25,000  Level Cleveland Center
08:11AM 42.7436 -81.9769 59° Northeast 225 259 25,000  Level Cleveland Center
08:13AM 42.8000 -81.8333 62° Northeast 230 265 25,000 -60 Level Toronto Center
08:14AM 42.8333 -81.7500 61° Northeast 230 265 24,900 -600 Descending Toronto Center
08:15AM 42.8667 -81.6833 56° Northeast 240 276 23,800 -1,200 Descending Toronto Center
08:16AM 42.9000 -81.5833 66° East 260 299 22,500 -1,320 Descending Toronto Center
08:17AM 42.9500 -81.5000 51° Northeast 270 311 21,200 -1,260 Descending Toronto Center
08:18AM 42.9833 -81.4167 61° Northeast 270 311 20,000 -1,260 Descending Toronto Center
08:19AM 43.0167 -81.3167 65° Northeast 270 311 18,700 -1,200 Descending Toronto Center
08:20AM 43.0500 -81.2333 61° Northeast 270 311 17,600 -1,200 Descending Toronto Center
08:21AM 43.1000 -81.1667 44° Northeast 270 311 16,400 -1,260 Descending Toronto Center
08:22AM 43.1333 -81.0667 65° Northeast 270 311 15,100 -1,320 Descending Toronto Center
08:23AM 43.1667 -80.9833 61° Northeast 270 311 13,800 -1,020 Descending Toronto Center
08:24AM 43.2000 -80.8833 65° Northeast 260 299 13,100 -420 Descending Toronto Center
08:25AM 43.2333 -80.8167 56° Northeast 250 288 13,000 -60 Descending Toronto Center
08:26AM 43.2833 -80.7333 50° Northeast 240 276 13,000 -780 Level Toronto Center
08:27AM 43.3167 -80.6667 55° Northeast 250 288 11,500 -1,560 Descending Toronto Center
08:28AM 43.3667 -80.5667 55° Northeast 250 288 9,900 -1,680 Descending Toronto Center
08:29AM 43.4000 -80.4833 61° Northeast 250 288 8,200 -1,440 Descending Toronto Center
08:30AM 43.4333 -80.4167 55° Northeast 260 299 7,100 -600 Descending Toronto Center
08:31AM 43.4667 -80.3167 65° Northeast 250 288 7,000 -60 Descending Toronto Center
08:32AM 43.4667 -80.2333 90° East 240 276 7,000 -120 Level Toronto Center
08:33AM 43.4833 -80.1333 77° East 240 276 6,800 -780 Descending Toronto Center
08:34AM 43.4833 -80.0500 90° East 240 276 5,500 -1,140 Descending Toronto Center
08:35AM 43.4833 -79.9833 90° East 210 242 4,600 -780 Descending Toronto Center
08:36AM 43.4833 -79.9167 90° East 180 207 4,000 -720 Descending Toronto Center
08:37AM 43.5167 -79.8667 47° Northeast 170 196 3,200 -540 Descending Toronto Center
08:38AM 43.5500 -79.8167 47° Northeast 160 184 3,000 -120 Descending Toronto Center
08:39AM 43.5833 -79.7667 47° Northeast 170 196 3,000 -420 Level Toronto Center
08:40AM 43.6167 -79.7333 36° Northeast 170 196 2,200 -900 Descending Toronto Center
08:41AM 43.6500 -79.6833 47° Northeast 170 196 1,300 -780 Descending Toronto Center
08:42AM 43.6667 -79.6333 65° Northeast 130 150 700 -420 Descending Toronto Center
08:43AM 43.6667 -79.6333 65° Northeast 50 58 500 -240 Descending Toronto Center